sensor_id;sensor_type;location;lat;lon;timestamp;P1;durP1;ratioP1;P2;durP2;ratioP2
19341;SDS011;9807;48.258;12.690;2024-02-21T00:02:11;13.83;;;6.10;;
19341;SDS011;9807;48.258;12.690;2024-02-21T00:04:36;16.73;;;6.07;;
19341;SDS011;9807;48.258;12.690;2024-02-21T00:07:03;15.90;;;6.07;;
19341;SDS011;9807;48.258;12.690;2024-02-21T00:09:29;19.07;;;6.30;;
19341;SDS011;9807;48.258;12.690;2024-02-21T00:11:55;14.27;;;6.93;;
19341;SDS011;9807;48.258;12.690;2024-02-21T00:14:20;16.13;;;6.37;;
19341;SDS011;9807;48.258;12.690;2024-02-21T00:16:49;13.73;;;5.50;;
19341;SDS011;9807;48.258;12.690;2024-02-21T00:19:15;17.43;;;5.50;;
19341;SDS011;9807;48.258;12.690;2024-02-21T00:21:41;15.10;;;5.97;;
19341;SDS011;9807;48.258;12.690;2024-02-21T00:24:06;19.17;;;5.97;;
19341;SDS011;9807;48.258;12.690;2024-02-21T00:26:32;11.83;;;5.33;;
19341;SDS011;9807;48.258;12.690;2024-02-21T00:28:59;17.93;;;6.23;;
19341;SDS011;9807;48.258;12.690;2024-02-21T00:31:25;13.03;;;5.77;;
19341;SDS011;9807;48.258;12.690;2024-02-21T00:33:50;13.17;;;5.83;;
19341;SDS011;9807;48.258;12.690;2024-02-21T00:36:16;14.87;;;5.90;;
19341;SDS011;9807;48.258;12.690;2024-02-21T00:38:42;14.07;;;5.70;;
19341;SDS011;9807;48.258;12.690;2024-02-21T00:41:07;14.67;;;6.13;;
19341;SDS011;9807;48.258;12.690;2024-02-21T00:43:33;17.93;;;6.47;;
19341;SDS011;9807;48.258;12.690;2024-02-21T00:45:59;15.00;;;6.20;;
19341;SDS011;9807;48.258;12.690;2024-02-21T00:48:24;16.60;;;7.00;;
19341;SDS011;9807;48.258;12.690;2024-02-21T00:50:50;20.37;;;8.90;;
19341;SDS011;9807;48.258;12.690;2024-02-21T00:53:16;23.13;;;7.93;;
19341;SDS011;9807;48.258;12.690;2024-02-21T00:55:42;22.60;;;7.90;;
19341;SDS011;9807;48.258;12.690;2024-02-21T00:58:08;17.90;;;8.03;;
19341;SDS011;9807;48.258;12.690;2024-02-21T01:00:34;17.10;;;7.77;;
19341;SDS011;9807;48.258;12.690;2024-02-21T01:03:00;17.63;;;7.53;;
19341;SDS011;9807;48.258;12.690;2024-02-21T01:05:26;18.43;;;6.80;;
19341;SDS011;9807;48.258;12.690;2024-02-21T01:07:54;19.73;;;6.97;;
19341;SDS011;9807;48.258;12.690;2024-02-21T01:10:19;15.30;;;6.27;;
19341;SDS011;9807;48.258;12.690;2024-02-21T01:12:45;10.70;;;5.30;;
19341;SDS011;9807;48.258;12.690;2024-02-21T01:15:11;17.27;;;6.43;;
19341;SDS011;9807;48.258;12.690;2024-02-21T01:17:36;18.73;;;6.37;;
19341;SDS011;9807;48.258;12.690;2024-02-21T01:20:02;12.47;;;6.07;;
19341;SDS011;9807;48.258;12.690;2024-02-21T01:22:30;12.37;;;5.87;;
19341;SDS011;9807;48.258;12.690;2024-02-21T01:24:56;19.27;;;7.50;;
19341;SDS011;9807;48.258;12.690;2024-02-21T01:27:21;18.57;;;7.43;;
19341;SDS011;9807;48.258;12.690;2024-02-21T01:29:47;17.17;;;7.47;;
19341;SDS011;9807;48.258;12.690;2024-02-21T01:32:14;19.50;;;8.13;;
19341;SDS011;9807;48.258;12.690;2024-02-21T01:34:40;22.83;;;7.83;;
19341;SDS011;9807;48.258;12.690;2024-02-21T01:37:06;16.33;;;7.67;;
19341;SDS011;9807;48.258;12.690;2024-02-21T01:39:32;15.67;;;7.50;;
19341;SDS011;9807;48.258;12.690;2024-02-21T01:41:59;17.93;;;7.40;;
19341;SDS011;9807;48.258;12.690;2024-02-21T01:44:25;14.23;;;6.37;;
19341;SDS011;9807;48.258;12.690;2024-02-21T01:46:51;9.70;;;5.00;;
19341;SDS011;9807;48.258;12.690;2024-02-21T01:49:17;11.30;;;5.53;;
19341;SDS011;9807;48.258;12.690;2024-02-21T01:51:44;10.97;;;5.20;;
19341;SDS011;9807;48.258;12.690;2024-02-21T01:54:10;10.87;;;4.77;;
19341;SDS011;9807;48.258;12.690;2024-02-21T01:56:39;15.07;;;5.73;;
19341;SDS011;9807;48.258;12.690;2024-02-21T01:59:04;10.17;;;4.97;;
19341;SDS011;9807;48.258;12.690;2024-02-21T02:01:30;10.40;;;4.63;;
19341;SDS011;9807;48.258;12.690;2024-02-21T02:03:56;7.27;;;4.10;;
19341;SDS011;9807;48.258;12.690;2024-02-21T02:06:24;9.33;;;4.10;;
19341;SDS011;9807;48.258;12.690;2024-02-21T02:08:50;11.43;;;4.80;;
19341;SDS011;9807;48.258;12.690;2024-02-21T02:11:15;9.17;;;4.33;;
19341;SDS011;9807;48.258;12.690;2024-02-21T02:13:41;9.17;;;3.97;;
19341;SDS011;9807;48.258;12.690;2024-02-21T02:16:07;12.63;;;5.03;;
19341;SDS011;9807;48.258;12.690;2024-02-21T02:18:33;11.90;;;5.50;;
19341;SDS011;9807;48.258;12.690;2024-02-21T02:20:59;8.97;;;4.27;;
19341;SDS011;9807;48.258;12.690;2024-02-21T02:23:25;8.13;;;4.47;;
19341;SDS011;9807;48.258;12.690;2024-02-21T02:25:55;10.93;;;4.83;;
19341;SDS011;9807;48.258;12.690;2024-02-21T02:28:21;10.27;;;4.40;;
19341;SDS011;9807;48.258;12.690;2024-02-21T02:30:47;8.43;;;4.07;;
19341;SDS011;9807;48.258;12.690;2024-02-21T02:33:13;7.73;;;3.77;;
19341;SDS011;9807;48.258;12.690;2024-02-21T02:35:39;6.53;;;3.90;;
19341;SDS011;9807;48.258;12.690;2024-02-21T02:38:05;6.87;;;3.80;;
19341;SDS011;9807;48.258;12.690;2024-02-21T02:40:33;8.63;;;3.80;;
19341;SDS011;9807;48.258;12.690;2024-02-21T02:42:59;15.60;;;4.93;;
19341;SDS011;9807;48.258;12.690;2024-02-21T02:45:25;12.30;;;4.67;;
19341;SDS011;9807;48.258;12.690;2024-02-21T02:47:54;14.23;;;4.40;;
19341;SDS011;9807;48.258;12.690;2024-02-21T02:50:20;12.10;;;4.30;;
19341;SDS011;9807;48.258;12.690;2024-02-21T02:52:45;9.63;;;4.33;;
19341;SDS011;9807;48.258;12.690;2024-02-21T02:55:11;9.07;;;4.33;;
19341;SDS011;9807;48.258;12.690;2024-02-21T02:57:37;11.10;;;5.63;;
19341;SDS011;9807;48.258;12.690;2024-02-21T03:00:03;12.57;;;5.23;;
19341;SDS011;9807;48.258;12.690;2024-02-21T03:02:29;11.00;;;4.53;;
19341;SDS011;9807;48.258;12.690;2024-02-21T03:04:56;9.27;;;4.30;;
19341;SDS011;9807;48.258;12.690;2024-02-21T03:07:24;11.07;;;4.50;;
19341;SDS011;9807;48.258;12.690;2024-02-21T03:09:50;11.53;;;4.80;;
19341;SDS011;9807;48.258;12.690;2024-02-21T03:12:15;9.57;;;4.83;;
19341;SDS011;9807;48.258;12.690;2024-02-21T03:14:49;12.47;;;5.57;;
19341;SDS011;9807;48.258;12.690;2024-02-21T03:17:15;13.40;;;6.33;;
19341;SDS011;9807;48.258;12.690;2024-02-21T03:19:41;15.67;;;5.67;;
19341;SDS011;9807;48.258;12.690;2024-02-21T03:22:07;12.33;;;5.20;;
19341;SDS011;9807;48.258;12.690;2024-02-21T03:24:32;11.90;;;5.03;;
19341;SDS011;9807;48.258;12.690;2024-02-21T03:27:01;12.07;;;5.20;;
19341;SDS011;9807;48.258;12.690;2024-02-21T03:29:27;11.03;;;4.90;;
19341;SDS011;9807;48.258;12.690;2024-02-21T03:31:53;8.30;;;4.23;;
19341;SDS011;9807;48.258;12.690;2024-02-21T03:34:18;8.47;;;3.80;;
19341;SDS011;9807;48.258;12.690;2024-02-21T03:36:44;9.70;;;4.60;;
19341;SDS011;9807;48.258;12.690;2024-02-21T03:39:10;10.10;;;4.00;;
19341;SDS011;9807;48.258;12.690;2024-02-21T03:41:36;8.87;;;3.93;;
19341;SDS011;9807;48.258;12.690;2024-02-21T03:44:02;9.93;;;4.13;;
19341;SDS011;9807;48.258;12.690;2024-02-21T03:46:27;9.20;;;4.17;;
19341;SDS011;9807;48.258;12.690;2024-02-21T03:48:53;9.73;;;3.70;;
19341;SDS011;9807;48.258;12.690;2024-02-21T03:51:19;10.60;;;4.00;;
19341;SDS011;9807;48.258;12.690;2024-02-21T03:53:44;12.70;;;4.13;;
19341;SDS011;9807;48.258;12.690;2024-02-21T03:56:10;6.70;;;3.47;;
19341;SDS011;9807;48.258;12.690;2024-02-21T03:58:36;5.87;;;3.20;;
19341;SDS011;9807;48.258;12.690;2024-02-21T04:01:02;7.93;;;3.50;;
19341;SDS011;9807;48.258;12.690;2024-02-21T04:03:28;7.83;;;3.30;;
19341;SDS011;9807;48.258;12.690;2024-02-21T04:05:55;10.57;;;3.73;;
19341;SDS011;9807;48.258;12.690;2024-02-21T04:08:22;7.50;;;3.70;;
19341;SDS011;9807;48.258;12.690;2024-02-21T04:10:48;8.00;;;3.50;;
19341;SDS011;9807;48.258;12.690;2024-02-21T04:13:17;5.63;;;3.30;;
19341;SDS011;9807;48.258;12.690;2024-02-21T04:15:42;4.13;;;2.90;;
19341;SDS011;9807;48.258;12.690;2024-02-21T04:18:08;4.70;;;2.90;;
19341;SDS011;9807;48.258;12.690;2024-02-21T04:20:34;5.83;;;3.00;;
19341;SDS011;9807;48.258;12.690;2024-02-21T04:23:00;4.27;;;2.53;;
19341;SDS011;9807;48.258;12.690;2024-02-21T04:25:26;4.73;;;3.10;;
19341;SDS011;9807;48.258;12.690;2024-02-21T04:27:51;5.50;;;3.03;;
19341;SDS011;9807;48.258;12.690;2024-02-21T04:30:17;5.83;;;3.00;;
19341;SDS011;9807;48.258;12.690;2024-02-21T04:32:43;5.77;;;2.63;;
19341;SDS011;9807;48.258;12.690;2024-02-21T04:35:08;6.40;;;2.80;;
19341;SDS011;9807;48.258;12.690;2024-02-21T04:37:34;5.00;;;2.80;;
19341;SDS011;9807;48.258;12.690;2024-02-21T04:40:00;5.20;;;2.70;;
19341;SDS011;9807;48.258;12.690;2024-02-21T04:42:26;4.87;;;2.77;;
19341;SDS011;9807;48.258;12.690;2024-02-21T04:44:51;7.40;;;2.70;;
19341;SDS011;9807;48.258;12.690;2024-02-21T04:47:17;4.53;;;2.80;;
19341;SDS011;9807;48.258;12.690;2024-02-21T04:49:44;4.77;;;2.57;;
19341;SDS011;9807;48.258;12.690;2024-02-21T04:52:11;8.00;;;2.90;;
19341;SDS011;9807;48.258;12.690;2024-02-21T04:54:36;9.13;;;3.70;;
19341;SDS011;9807;48.258;12.690;2024-02-21T04:57:02;10.77;;;4.23;;
19341;SDS011;9807;48.258;12.690;2024-02-21T04:59:28;8.57;;;4.13;;
19341;SDS011;9807;48.258;12.690;2024-02-21T05:01:54;8.57;;;3.50;;
19341;SDS011;9807;48.258;12.690;2024-02-21T05:04:20;11.90;;;4.30;;
19341;SDS011;9807;48.258;12.690;2024-02-21T05:06:46;7.30;;;3.57;;
19341;SDS011;9807;48.258;12.690;2024-02-21T05:09:11;6.30;;;3.30;;
19341;SDS011;9807;48.258;12.690;2024-02-21T05:11:38;5.83;;;3.20;;
19341;SDS011;9807;48.258;12.690;2024-02-21T05:14:04;7.93;;;3.83;;
19341;SDS011;9807;48.258;12.690;2024-02-21T05:16:30;9.73;;;4.03;;
19341;SDS011;9807;48.258;12.690;2024-02-21T05:18:59;10.57;;;4.30;;
19341;SDS011;9807;48.258;12.690;2024-02-21T05:21:24;7.17;;;3.10;;
19341;SDS011;9807;48.258;12.690;2024-02-21T05:23:50;6.10;;;3.20;;
19341;SDS011;9807;48.258;12.690;2024-02-21T05:26:23;8.90;;;4.10;;
19341;SDS011;9807;48.258;12.690;2024-02-21T05:28:50;5.43;;;3.10;;
19341;SDS011;9807;48.258;12.690;2024-02-21T05:31:16;10.07;;;3.47;;
19341;SDS011;9807;48.258;12.690;2024-02-21T05:33:46;8.53;;;3.67;;
19341;SDS011;9807;48.258;12.690;2024-02-21T05:36:12;3.60;;;2.70;;
19341;SDS011;9807;48.258;12.690;2024-02-21T05:38:38;7.20;;;3.70;;
19341;SDS011;9807;48.258;12.690;2024-02-21T05:41:04;9.73;;;3.67;;
19341;SDS011;9807;48.258;12.690;2024-02-21T05:43:30;6.57;;;3.83;;
19341;SDS011;9807;48.258;12.690;2024-02-21T05:45:56;9.07;;;3.73;;
19341;SDS011;9807;48.258;12.690;2024-02-21T05:48:22;5.10;;;3.00;;
19341;SDS011;9807;48.258;12.690;2024-02-21T05:50:48;6.73;;;3.10;;
19341;SDS011;9807;48.258;12.690;2024-02-21T05:53:14;5.40;;;2.90;;
19341;SDS011;9807;48.258;12.690;2024-02-21T05:55:40;9.80;;;4.03;;
19341;SDS011;9807;48.258;12.690;2024-02-21T05:58:06;8.50;;;3.27;;
19341;SDS011;9807;48.258;12.690;2024-02-21T06:00:32;5.93;;;3.40;;
19341;SDS011;9807;48.258;12.690;2024-02-21T06:02:59;7.77;;;3.30;;
19341;SDS011;9807;48.258;12.690;2024-02-21T06:05:24;8.50;;;3.40;;
19341;SDS011;9807;48.258;12.690;2024-02-21T06:07:50;8.60;;;3.70;;
19341;SDS011;9807;48.258;12.690;2024-02-21T06:10:16;5.43;;;3.13;;
19341;SDS011;9807;48.258;12.690;2024-02-21T06:12:41;6.57;;;2.70;;
19341;SDS011;9807;48.258;12.690;2024-02-21T06:15:07;3.97;;;2.67;;
19341;SDS011;9807;48.258;12.690;2024-02-21T06:17:33;6.70;;;3.07;;
19341;SDS011;9807;48.258;12.690;2024-02-21T06:20:02;7.00;;;3.00;;
19341;SDS011;9807;48.258;12.690;2024-02-21T06:22:28;5.87;;;3.13;;
19341;SDS011;9807;48.258;12.690;2024-02-21T06:24:55;10.07;;;3.43;;
19341;SDS011;9807;48.258;12.690;2024-02-21T06:27:21;8.00;;;3.37;;
19341;SDS011;9807;48.258;12.690;2024-02-21T06:29:46;7.17;;;3.50;;
19341;SDS011;9807;48.258;12.690;2024-02-21T06:32:12;15.20;;;5.30;;
19341;SDS011;9807;48.258;12.690;2024-02-21T06:34:38;9.73;;;4.80;;
19341;SDS011;9807;48.258;12.690;2024-02-21T06:37:03;11.87;;;5.90;;
19341;SDS011;9807;48.258;12.690;2024-02-21T06:39:29;7.07;;;3.73;;
19341;SDS011;9807;48.258;12.690;2024-02-21T06:41:55;8.80;;;5.17;;
19341;SDS011;9807;48.258;12.690;2024-02-21T06:44:21;13.13;;;5.47;;
19341;SDS011;9807;48.258;12.690;2024-02-21T06:46:47;6.53;;;3.60;;
19341;SDS011;9807;48.258;12.690;2024-02-21T06:49:12;7.37;;;3.90;;
19341;SDS011;9807;48.258;12.690;2024-02-21T06:51:41;8.17;;;3.50;;
19341;SDS011;9807;48.258;12.690;2024-02-21T06:54:08;8.20;;;3.93;;
19341;SDS011;9807;48.258;12.690;2024-02-21T06:56:34;12.30;;;5.50;;
19341;SDS011;9807;48.258;12.690;2024-02-21T06:59:00;12.43;;;5.33;;
19341;SDS011;9807;48.258;12.690;2024-02-21T07:01:28;6.47;;;3.43;;
19341;SDS011;9807;48.258;12.690;2024-02-21T07:03:54;4.83;;;3.30;;
19341;SDS011;9807;48.258;12.690;2024-02-21T07:06:20;7.97;;;4.13;;
19341;SDS011;9807;48.258;12.690;2024-02-21T07:08:46;5.57;;;3.10;;
19341;SDS011;9807;48.258;12.690;2024-02-21T07:11:11;7.57;;;3.37;;
19341;SDS011;9807;48.258;12.690;2024-02-21T07:13:37;4.67;;;3.30;;
19341;SDS011;9807;48.258;12.690;2024-02-21T07:16:03;11.17;;;5.13;;
19341;SDS011;9807;48.258;12.690;2024-02-21T07:18:29;7.37;;;4.77;;
19341;SDS011;9807;48.258;12.690;2024-02-21T07:20:54;7.77;;;4.13;;
19341;SDS011;9807;48.258;12.690;2024-02-21T07:23:24;7.27;;;4.10;;
19341;SDS011;9807;48.258;12.690;2024-02-21T07:25:50;6.00;;;3.77;;
19341;SDS011;9807;48.258;12.690;2024-02-21T07:28:16;8.43;;;4.33;;
19341;SDS011;9807;48.258;12.690;2024-02-21T07:30:42;10.33;;;6.13;;
19341;SDS011;9807;48.258;12.690;2024-02-21T07:33:08;14.00;;;5.57;;
19341;SDS011;9807;48.258;12.690;2024-02-21T07:35:37;9.67;;;5.03;;
19341;SDS011;9807;48.258;12.690;2024-02-21T07:38:04;8.07;;;3.90;;
19341;SDS011;9807;48.258;12.690;2024-02-21T07:40:30;7.87;;;4.23;;
19341;SDS011;9807;48.258;12.690;2024-02-21T07:42:56;6.80;;;3.67;;
19341;SDS011;9807;48.258;12.690;2024-02-21T07:45:21;8.57;;;4.20;;
19341;SDS011;9807;48.258;12.690;2024-02-21T07:47:48;10.17;;;4.30;;
19341;SDS011;9807;48.258;12.690;2024-02-21T07:50:15;11.40;;;5.33;;
19341;SDS011;9807;48.258;12.690;2024-02-21T07:52:41;13.47;;;5.67;;
19341;SDS011;9807;48.258;12.690;2024-02-21T07:55:08;13.90;;;5.60;;
19341;SDS011;9807;48.258;12.690;2024-02-21T07:57:35;11.13;;;5.70;;
19341;SDS011;9807;48.258;12.690;2024-02-21T08:00:01;14.67;;;6.10;;
19341;SDS011;9807;48.258;12.690;2024-02-21T08:02:29;11.90;;;5.77;;
19341;SDS011;9807;48.258;12.690;2024-02-21T08:04:54;15.43;;;6.27;;
19341;SDS011;9807;48.258;12.690;2024-02-21T08:07:20;12.40;;;5.37;;
19341;SDS011;9807;48.258;12.690;2024-02-21T08:09:45;7.67;;;4.50;;
19341;SDS011;9807;48.258;12.690;2024-02-21T08:12:11;10.23;;;4.63;;
19341;SDS011;9807;48.258;12.690;2024-02-21T08:14:37;10.10;;;4.70;;
19341;SDS011;9807;48.258;12.690;2024-02-21T08:17:02;13.43;;;5.40;;
19341;SDS011;9807;48.258;12.690;2024-02-21T08:19:28;10.50;;;4.60;;
19341;SDS011;9807;48.258;12.690;2024-02-21T08:21:54;9.43;;;4.43;;
19341;SDS011;9807;48.258;12.690;2024-02-21T08:24:20;11.00;;;4.63;;
19341;SDS011;9807;48.258;12.690;2024-02-21T08:26:47;8.47;;;4.20;;
19341;SDS011;9807;48.258;12.690;2024-02-21T08:29:13;11.20;;;4.43;;
19341;SDS011;9807;48.258;12.690;2024-02-21T08:31:39;8.83;;;4.50;;
19341;SDS011;9807;48.258;12.690;2024-02-21T08:34:04;15.70;;;4.77;;
19341;SDS011;9807;48.258;12.690;2024-02-21T08:36:30;16.87;;;4.57;;
19341;SDS011;9807;48.258;12.690;2024-02-21T08:38:57;7.77;;;4.33;;
19341;SDS011;9807;48.258;12.690;2024-02-21T08:41:29;11.73;;;4.50;;
19341;SDS011;9807;48.258;12.690;2024-02-21T08:43:56;7.83;;;4.53;;
19341;SDS011;9807;48.258;12.690;2024-02-21T08:46:22;18.60;;;4.70;;
19341;SDS011;9807;48.258;12.690;2024-02-21T08:48:49;11.10;;;3.77;;
19341;SDS011;9807;48.258;12.690;2024-02-21T08:51:16;9.57;;;4.33;;
19341;SDS011;9807;48.258;12.690;2024-02-21T08:53:42;11.63;;;4.67;;
19341;SDS011;9807;48.258;12.690;2024-02-21T08:56:08;14.43;;;4.77;;
19341;SDS011;9807;48.258;12.690;2024-02-21T08:58:35;27.20;;;5.20;;
19341;SDS011;9807;48.258;12.690;2024-02-21T09:01:02;8.87;;;4.53;;
19341;SDS011;9807;48.258;12.690;2024-02-21T09:03:30;11.00;;;5.20;;
19341;SDS011;9807;48.258;12.690;2024-02-21T09:05:59;8.27;;;4.63;;
19341;SDS011;9807;48.258;12.690;2024-02-21T09:08:25;11.77;;;3.70;;
19341;SDS011;9807;48.258;12.690;2024-02-21T09:10:51;9.67;;;4.30;;
19341;SDS011;9807;48.258;12.690;2024-02-21T09:13:17;9.13;;;4.10;;
19341;SDS011;9807;48.258;12.690;2024-02-21T09:15:43;7.87;;;3.50;;
19341;SDS011;9807;48.258;12.690;2024-02-21T09:18:09;14.23;;;4.10;;
19341;SDS011;9807;48.258;12.690;2024-02-21T09:20:35;9.03;;;4.00;;
19341;SDS011;9807;48.258;12.690;2024-02-21T09:23:01;11.00;;;3.93;;
19341;SDS011;9807;48.258;12.690;2024-02-21T09:25:26;5.90;;;3.57;;
19341;SDS011;9807;48.258;12.690;2024-02-21T09:27:53;11.93;;;3.47;;
19341;SDS011;9807;48.258;12.690;2024-02-21T09:30:20;6.47;;;3.37;;
19341;SDS011;9807;48.258;12.690;2024-02-21T09:32:47;12.37;;;4.10;;
19341;SDS011;9807;48.258;12.690;2024-02-21T09:35:13;7.93;;;3.10;;
19341;SDS011;9807;48.258;12.690;2024-02-21T09:37:39;6.70;;;2.67;;
19341;SDS011;9807;48.258;12.690;2024-02-21T09:40:05;6.00;;;3.07;;
19341;SDS011;9807;48.258;12.690;2024-02-21T09:42:36;6.50;;;3.20;;
19341;SDS011;9807;48.258;12.690;2024-02-21T09:45:04;8.47;;;3.30;;
19341;SDS011;9807;48.258;12.690;2024-02-21T09:50:40;8.80;;;3.47;;
19341;SDS011;9807;48.258;12.690;2024-02-21T09:53:06;22.60;;;4.30;;
19341;SDS011;9807;48.258;12.690;2024-02-21T09:55:33;7.90;;;3.47;;
19341;SDS011;9807;48.258;12.690;2024-02-21T09:58:00;5.40;;;3.23;;
19341;SDS011;9807;48.258;12.690;2024-02-21T10:00:26;5.77;;;3.37;;
19341;SDS011;9807;48.258;12.690;2024-02-21T10:02:53;5.80;;;3.17;;
19341;SDS011;9807;48.258;12.690;2024-02-21T10:05:19;6.57;;;3.73;;
19341;SDS011;9807;48.258;12.690;2024-02-21T10:07:45;5.40;;;3.10;;
19341;SDS011;9807;48.258;12.690;2024-02-21T10:10:11;6.80;;;3.43;;
19341;SDS011;9807;48.258;12.690;2024-02-21T10:12:47;7.87;;;3.03;;
19341;SDS011;9807;48.258;12.690;2024-02-21T10:15:14;7.60;;;2.63;;
19341;SDS011;9807;48.258;12.690;2024-02-21T10:17:45;7.20;;;2.93;;
19341;SDS011;9807;48.258;12.690;2024-02-21T10:20:11;5.30;;;3.10;;
19341;SDS011;9807;48.258;12.690;2024-02-21T10:22:39;7.93;;;2.80;;
19341;SDS011;9807;48.258;12.690;2024-02-21T10:25:08;6.57;;;2.70;;
19341;SDS011;9807;48.258;12.690;2024-02-21T10:27:34;5.20;;;2.77;;
19341;SDS011;9807;48.258;12.690;2024-02-21T10:30:01;7.07;;;2.90;;
19341;SDS011;9807;48.258;12.690;2024-02-21T10:32:27;5.27;;;2.67;;
19341;SDS011;9807;48.258;12.690;2024-02-21T10:35:00;5.30;;;3.03;;
19341;SDS011;9807;48.258;12.690;2024-02-21T10:37:28;5.10;;;2.40;;
19341;SDS011;9807;48.258;12.690;2024-02-21T10:39:54;5.53;;;1.90;;
19341;SDS011;9807;48.258;12.690;2024-02-21T10:42:21;3.63;;;1.43;;
19341;SDS011;9807;48.258;12.690;2024-02-21T10:44:47;7.20;;;2.00;;
19341;SDS011;9807;48.258;12.690;2024-02-21T10:47:17;6.23;;;2.27;;
19341;SDS011;9807;48.258;12.690;2024-02-21T10:49:48;3.10;;;1.70;;
19341;SDS011;9807;48.258;12.690;2024-02-21T10:55:00;5.17;;;2.50;;
19341;SDS011;9807;48.258;12.690;2024-02-21T10:57:29;4.63;;;1.70;;
19341;SDS011;9807;48.258;12.690;2024-02-21T10:59:58;6.50;;;2.43;;
19341;SDS011;9807;48.258;12.690;2024-02-21T11:02:26;5.33;;;1.90;;
19341;SDS011;9807;48.258;12.690;2024-02-21T11:04:55;4.27;;;1.77;;
19341;SDS011;9807;48.258;12.690;2024-02-21T11:07:22;3.53;;;1.80;;
19341;SDS011;9807;48.258;12.690;2024-02-21T11:09:54;4.43;;;1.83;;
19341;SDS011;9807;48.258;12.690;2024-02-21T11:12:20;4.23;;;2.00;;
19341;SDS011;9807;48.258;12.690;2024-02-21T11:14:47;5.93;;;2.03;;
19341;SDS011;9807;48.258;12.690;2024-02-21T11:17:16;6.80;;;2.50;;
19341;SDS011;9807;48.258;12.690;2024-02-21T11:19:43;4.83;;;1.80;;
19341;SDS011;9807;48.258;12.690;2024-02-21T11:22:18;3.07;;;1.30;;
19341;SDS011;9807;48.258;12.690;2024-02-21T11:24:49;4.93;;;1.60;;
19341;SDS011;9807;48.258;12.690;2024-02-21T11:27:16;4.37;;;1.53;;
19341;SDS011;9807;48.258;12.690;2024-02-21T11:29:53;3.23;;;1.80;;
19341;SDS011;9807;48.258;12.690;2024-02-21T11:32:20;4.20;;;1.70;;
19341;SDS011;9807;48.258;12.690;2024-02-21T11:34:55;4.73;;;1.73;;
19341;SDS011;9807;48.258;12.690;2024-02-21T11:37:23;5.23;;;1.70;;
19341;SDS011;9807;48.258;12.690;2024-02-21T11:39:51;5.83;;;1.70;;
19341;SDS011;9807;48.258;12.690;2024-02-21T11:42:18;4.40;;;1.80;;
19341;SDS011;9807;48.258;12.690;2024-02-21T11:44:45;4.57;;;1.90;;
19341;SDS011;9807;48.258;12.690;2024-02-21T11:47:11;3.50;;;1.87;;
19341;SDS011;9807;48.258;12.690;2024-02-21T11:49:43;3.53;;;1.60;;
19341;SDS011;9807;48.258;12.690;2024-02-21T11:52:15;3.50;;;1.53;;
19341;SDS011;9807;48.258;12.690;2024-02-21T11:54:43;2.90;;;1.60;;
19341;SDS011;9807;48.258;12.690;2024-02-21T11:57:10;5.47;;;1.70;;
19341;SDS011;9807;48.258;12.690;2024-02-21T11:59:39;5.70;;;1.70;;
19341;SDS011;9807;48.258;12.690;2024-02-21T12:02:11;3.00;;;1.30;;
19341;SDS011;9807;48.258;12.690;2024-02-21T12:04:37;3.27;;;1.30;;
19341;SDS011;9807;48.258;12.690;2024-02-21T12:07:04;5.00;;;1.30;;
19341;SDS011;9807;48.258;12.690;2024-02-21T12:09:30;3.80;;;1.30;;
19341;SDS011;9807;48.258;12.690;2024-02-21T12:12:05;3.17;;;1.30;;
19341;SDS011;9807;48.258;12.690;2024-02-21T12:14:35;4.00;;;1.70;;
19341;SDS011;9807;48.258;12.690;2024-02-21T12:17:01;2.37;;;1.17;;
19341;SDS011;9807;48.258;12.690;2024-02-21T12:19:31;4.97;;;1.83;;
19341;SDS011;9807;48.258;12.690;2024-02-21T12:21:58;2.57;;;1.30;;
19341;SDS011;9807;48.258;12.690;2024-02-21T12:24:26;4.33;;;1.20;;
19341;SDS011;9807;48.258;12.690;2024-02-21T12:26:53;4.07;;;1.57;;
19341;SDS011;9807;48.258;12.690;2024-02-21T12:29:20;2.87;;;1.43;;
19341;SDS011;9807;48.258;12.690;2024-02-21T12:31:47;3.37;;;1.47;;
19341;SDS011;9807;48.258;12.690;2024-02-21T12:34:14;2.60;;;1.90;;
19341;SDS011;9807;48.258;12.690;2024-02-21T12:36:41;3.07;;;1.43;;
19341;SDS011;9807;48.258;12.690;2024-02-21T12:39:08;3.00;;;1.70;;
19341;SDS011;9807;48.258;12.690;2024-02-21T12:41:35;2.73;;;1.70;;
19341;SDS011;9807;48.258;12.690;2024-02-21T12:44:04;2.43;;;1.60;;
19341;SDS011;9807;48.258;12.690;2024-02-21T12:46:32;3.40;;;2.00;;
19341;SDS011;9807;48.258;12.690;2024-02-21T12:49:00;2.60;;;1.40;;
19341;SDS011;9807;48.258;12.690;2024-02-21T12:51:32;3.53;;;1.57;;
19341;SDS011;9807;48.258;12.690;2024-02-21T12:54:01;2.67;;;1.43;;
19341;SDS011;9807;48.258;12.690;2024-02-21T12:56:28;5.13;;;1.50;;
19341;SDS011;9807;48.258;12.690;2024-02-21T12:58:54;1.90;;;1.10;;
19341;SDS011;9807;48.258;12.690;2024-02-21T13:01:20;4.13;;;1.30;;
19341;SDS011;9807;48.258;12.690;2024-02-21T13:03:46;8.60;;;1.20;;
19341;SDS011;9807;48.258;12.690;2024-02-21T13:06:12;3.20;;;1.20;;
19341;SDS011;9807;48.258;12.690;2024-02-21T13:08:38;1.87;;;1.00;;
19341;SDS011;9807;48.258;12.690;2024-02-21T13:11:04;1.87;;;1.10;;
19341;SDS011;9807;48.258;12.690;2024-02-21T13:13:30;1.83;;;1.10;;
19341;SDS011;9807;48.258;12.690;2024-02-21T13:15:56;1.47;;;1.00;;
19341;SDS011;9807;48.258;12.690;2024-02-21T13:18:24;3.80;;;1.40;;
19341;SDS011;9807;48.258;12.690;2024-02-21T13:20:50;1.40;;;1.07;;
19341;SDS011;9807;48.258;12.690;2024-02-21T13:23:16;2.87;;;1.30;;
19341;SDS011;9807;48.258;12.690;2024-02-21T13:25:41;7.90;;;1.20;;
19341;SDS011;9807;48.258;12.690;2024-02-21T13:28:08;3.30;;;1.20;;
19341;SDS011;9807;48.258;12.690;2024-02-21T13:30:35;1.10;;;0.90;;
19341;SDS011;9807;48.258;12.690;2024-02-21T13:33:00;1.97;;;1.10;;
19341;SDS011;9807;48.258;12.690;2024-02-21T13:35:26;5.80;;;1.30;;
19341;SDS011;9807;48.258;12.690;2024-02-21T13:37:53;2.33;;;1.10;;
19341;SDS011;9807;48.258;12.690;2024-02-21T13:40:19;1.43;;;0.90;;
19341;SDS011;9807;48.258;12.690;2024-02-21T13:42:44;2.03;;;1.00;;
19341;SDS011;9807;48.258;12.690;2024-02-21T13:45:10;2.00;;;1.00;;
19341;SDS011;9807;48.258;12.690;2024-02-21T13:47:39;2.23;;;1.20;;
19341;SDS011;9807;48.258;12.690;2024-02-21T13:50:05;2.07;;;1.03;;
19341;SDS011;9807;48.258;12.690;2024-02-21T13:52:36;1.73;;;1.13;;
19341;SDS011;9807;48.258;12.690;2024-02-21T13:55:02;2.00;;;1.10;;
19341;SDS011;9807;48.258;12.690;2024-02-21T13:57:28;2.17;;;0.97;;
19341;SDS011;9807;48.258;12.690;2024-02-21T13:59:53;1.00;;;0.80;;
19341;SDS011;9807;48.258;12.690;2024-02-21T14:02:22;1.27;;;0.80;;
19341;SDS011;9807;48.258;12.690;2024-02-21T14:04:48;1.60;;;0.90;;
19341;SDS011;9807;48.258;12.690;2024-02-21T14:07:13;3.83;;;1.27;;
19341;SDS011;9807;48.258;12.690;2024-02-21T14:09:39;3.37;;;1.80;;
19341;SDS011;9807;48.258;12.690;2024-02-21T14:12:05;2.47;;;1.40;;
19341;SDS011;9807;48.258;12.690;2024-02-21T14:14:35;4.67;;;1.30;;
19341;SDS011;9807;48.258;12.690;2024-02-21T14:17:02;3.47;;;1.40;;
19341;SDS011;9807;48.258;12.690;2024-02-21T14:19:28;1.60;;;0.90;;
19341;SDS011;9807;48.258;12.690;2024-02-21T14:21:55;2.37;;;1.13;;
19341;SDS011;9807;48.258;12.690;2024-02-21T14:24:30;2.50;;;1.17;;
19341;SDS011;9807;48.258;12.690;2024-02-21T14:26:56;1.13;;;0.97;;
19341;SDS011;9807;48.258;12.690;2024-02-21T14:29:22;3.27;;;1.00;;
19341;SDS011;9807;48.258;12.690;2024-02-21T14:31:48;1.43;;;1.10;;
19341;SDS011;9807;48.258;12.690;2024-02-21T14:34:14;2.33;;;1.23;;
19341;SDS011;9807;48.258;12.690;2024-02-21T14:36:39;2.17;;;0.97;;
19341;SDS011;9807;48.258;12.690;2024-02-21T14:39:06;4.23;;;1.00;;
19341;SDS011;9807;48.258;12.690;2024-02-21T14:41:31;1.30;;;0.80;;
19341;SDS011;9807;48.258;12.690;2024-02-21T14:43:57;3.60;;;0.90;;
19341;SDS011;9807;48.258;12.690;2024-02-21T14:46:28;3.77;;;1.23;;